Time;durP1;ratioP1;P1;durP2;ratioP2;P2;SDS_P1;SDS_P2;PMS_P1;PMS_P2;Temp;Humidity;BMP_temperature;BMP_pressure;BME280_temperature;BME280_humidity;BME280_pressure;Samples;Min_cycle;Max_cycle;Signal;HPM_P1;HPM_P2
2021/12/20 00:00:14;;;;;;;3.05;1.80;;;-0.10;99.90;;;-0.56;100.00;97417.81;5053155;27;114819;-72
2021/12/20 00:02:45;;;;;;;2.80;1.75;;;-0.10;99.90;;;-0.68;100.00;97426.25;5084905;27;130704;-72
2021/12/20 00:05:14;;;;;;;3.58;1.90;;;-0.10;99.90;;;-0.78;100.00;97429.84;5085121;27;129836;-73
2021/12/20 00:07:43;;;;;;;4.82;1.92;;;-0.20;99.90;;;-0.80;100.00;97428.53;5087617;27;119059;-73
2021/12/20 00:10:14;;;;;;;3.30;1.70;;;-0.20;99.90;;;-0.56;100.00;97433.81;5088412;27;115074;-73
2021/12/20 00:12:43;;;;;;;4.65;1.70;;;-0.20;99.90;;;-0.69;100.00;97429.19;5085132;27;129951;-73
2021/12/20 00:15:13;;;;;;;3.08;1.60;;;-0.20;99.90;;;-0.58;100.00;97433.28;5087945;27;130550;-73
2021/12/20 00:17:41;;;;;;;4.72;2.22;;;-0.20;99.90;;;-0.55;100.00;97435.38;5086934;27;119171;-73
2021/12/20 00:20:11;;;;;;;4.95;2.30;;;-0.10;99.90;;;-0.69;100.00;97434.53;5087651;27;115213;-72
2021/12/20 00:22:40;;;;;;;5.40;2.33;;;-0.30;99.90;;;-0.80;100.00;97434.66;5087578;27;130435;-72
2021/12/20 00:25:10;;;;;;;5.03;2.20;;;-0.40;99.90;;;-0.84;100.00;97433.66;5084600;27;129970;-72
2021/12/20 00:27:40;;;;;;;4.90;2.42;;;-0.50;99.90;;;-0.76;100.00;97443.66;5085645;27;118935;-72
2021/12/20 00:30:12;;;;;;;6.57;2.13;;;-0.50;99.90;;;-0.90;100.00;97442.78;5069933;27;115349;-73
2021/12/20 00:32:41;;;;;;;4.57;1.80;;;-0.60;99.90;;;-0.99;100.00;97452.50;5084633;27;129981;-72
2021/12/20 00:35:12;;;;;;;6.75;1.90;;;-0.60;99.90;;;-1.05;100.00;97433.13;5069360;27;128681;-72
2021/12/20 00:40:27;;;;;;;5.85;1.80;;;-0.70;99.90;;;-1.17;100.00;97446.88;5086426;27;115029;-72
2021/12/20 00:43:01;;;;;;;2.50;1.67;;;-0.70;99.90;;;-1.21;100.00;97447.72;5066032;27;130305;-72
2021/12/20 00:45:33;;;;;;;6.68;2.10;;;-0.70;99.90;;;-1.15;100.00;97444.69;5087503;27;129834;-72
2021/12/20 00:48:02;;;;;;;4.13;1.42;;;-0.60;99.90;;;-1.20;100.00;97452.75;5069283;27;117876;-72
2021/12/20 00:50:32;;;;;;;3.45;1.63;;;-0.60;99.90;;;-1.22;100.00;97444.25;5069654;27;114106;-72
2021/12/20 00:53:00;;;;;;;3.00;1.50;;;-0.60;99.90;;;-1.21;100.00;97453.81;5085766;27;130570;-73
2021/12/20 00:55:30;;;;;;;3.55;1.40;;;-0.60;99.90;;;-1.22;100.00;97460.22;5069249;27;128922;-72
2021/12/20 00:58:01;;;;;;;4.60;2.30;;;-0.60;99.90;;;-1.14;100.00;97462.28;5087713;27;118734;-72
2021/12/20 01:00:32;;;;;;;4.18;1.63;;;-0.60;99.90;;;-1.13;100.00;97485.13;5087890;27;115266;-73
2021/12/20 01:03:01;;;;;;;2.53;1.00;;;-0.60;99.90;;;-1.59;100.00;97477.66;5084510;27;130010;-72
2021/12/20 01:05:31;;;;;;;1.27;0.90;;;-0.80;99.90;;;-1.85;100.00;97485.88;5084208;27;130161;-72
2021/12/20 01:08:03;;;;;;;1.23;1.00;;;-1.00;99.90;;;-1.75;100.00;97478.88;5086331;27;119006;-73
2021/12/20 01:10:32;;;;;;;2.08;1.00;;;-1.00;99.90;;;-1.61;100.00;97490.44;5087683;27;115389;-72
2021/12/20 01:13:03;;;;;;;1.40;0.98;;;-1.00;99.90;;;-1.61;100.00;97485.09;5065972;27;130904;-73
2021/12/20 01:15:47;;;;;;;1.42;1.10;;;-1.00;99.90;;;-1.54;100.00;97485.59;5069076;27;129509;-72
2021/12/20 01:18:17;;;;;;;3.17;1.17;;;-1.00;99.90;;;-1.42;100.00;97487.06;5084526;27;119096;-73
2021/12/20 01:20:46;;;;;;;3.33;1.27;;;-1.00;99.90;;;-1.38;100.00;97477.44;5087938;27;115764;-72
2021/12/20 01:23:16;;;;;;;2.47;0.90;;;-0.90;99.90;;;-1.38;100.00;97477.44;5084131;27;130517;-72
2021/12/20 01:25:46;;;;;;;1.98;1.20;;;-0.90;99.90;;;-1.30;100.00;97480.25;5084526;27;129762;-73
2021/12/20 01:28:16;;;;;;;3.72;1.40;;;-0.90;99.90;;;-1.26;100.00;97477.84;5072834;27;117878;-73
2021/12/20 01:30:45;;;;;;;4.18;1.50;;;-0.80;99.90;;;-1.16;100.00;97480.38;5090215;27;115180;-74
2021/12/20 01:33:14;;;;;;;5.03;1.75;;;-0.80;99.90;;;-1.17;100.00;97489.44;5088048;27;129998;-74
2021/12/20 01:35:43;;;;;;;4.88;1.80;;;-0.80;99.90;;;-1.15;100.00;97481.97;5088268;27;130275;-74
2021/12/20 01:38:12;;;;;;;5.25;1.70;;;-0.80;99.90;;;-0.99;100.00;97484.44;5087857;27;118885;-73
2021/12/20 01:40:41;;;;;;;4.93;1.95;;;-0.70;99.90;;;-0.97;100.00;97476.97;5070732;27;115193;-72
2021/12/20 01:43:12;;;;;;;3.67;1.83;;;-0.70;99.90;;;-0.97;100.00;97482.28;5088585;27;130158;-73
2021/12/20 01:45:43;;;;;;;6.38;2.53;;;-0.70;99.90;;;-0.85;100.00;97473.91;5089809;27;130234;-73
2021/12/20 01:48:14;;;;;;;4.35;2.47;;;-0.70;99.90;;;-0.81;100.00;97478.38;5087919;27;119277;-73
2021/12/20 01:51:16;;;;;;;5.68;2.10;;;-0.70;99.90;;;-0.90;100.00;97485.41;5088613;27;115473;-73
2021/12/20 01:53:45;;;;;;;6.60;2.70;;;-0.70;99.90;;;-0.87;100.00;97482.16;5089413;27;130208;-73
2021/12/20 01:56:14;;;;;;;4.47;2.03;;;-0.70;99.90;;;-0.97;100.00;97484.94;5090096;27;130020;-73
2021/12/20 01:58:43;;;;;;;4.70;2.28;;;-0.80;99.90;;;-1.00;100.00;97482.84;5069454;27;119032;-73
2021/12/20 02:01:23;;;;;;;4.60;2.05;;;-0.80;99.90;;;-1.04;100.00;97481.84;5088109;27;115202;-73
2021/12/20 02:03:59;;;;;;;4.82;2.22;;;-0.90;99.90;;;-1.04;100.00;97487.97;5071918;27;129375;-73
2021/12/20 02:06:33;;;;;;;5.25;2.75;;;-0.90;99.90;;;-1.13;100.00;97482.47;5086995;27;129590;-73
2021/12/20 02:09:06;;;;;;;5.60;2.17;;;-1.00;99.90;;;-1.15;100.00;97486.50;5087392;27;118829;-73
2021/12/20 02:11:35;;;;;;;3.55;1.98;;;-1.00;99.90;;;-1.28;100.00;97477.31;5087868;27;115652;-73
2021/12/20 02:14:04;;;;;;;4.75;2.20;;;-1.10;99.90;;;-1.28;100.00;97487.97;5088479;27;130073;-73
2021/12/20 02:16:36;;;;;;;3.50;1.90;;;-1.10;99.90;;;-1.26;100.00;97491.16;5086980;27;130761;-73
2021/12/20 02:19:06;;;;;;;3.35;2.03;;;-1.10;99.90;;;-1.42;100.00;97471.09;5089734;27;118910;-74
2021/12/20 02:21:37;;;;;;;3.72;1.80;;;-1.20;99.90;;;-1.46;100.00;97484.97;5087996;27;115325;-73
2021/12/20 02:24:06;;;;;;;4.18;2.00;;;-1.20;99.90;;;-1.49;100.00;97493.50;5054681;27;129007;-72
2021/12/20 02:26:36;;;;;;;3.30;1.88;;;-1.30;99.90;;;-1.49;100.00;97498.81;5087197;27;129903;-72
2021/12/20 02:29:08;;;;;;;5.22;2.08;;;-1.30;99.90;;;-1.42;100.00;97501.16;5089049;27;118925;-72
2021/12/20 02:37:26;;;;;;;4.32;1.90;;;-1.20;99.90;;;-1.22;100.00;97496.69;5069604;27;129863;-72
2021/12/20 02:39:57;;;;;;;3.63;2.00;;;-1.20;99.90;;;-1.04;100.00;97492.47;5089356;27;119188;-73
2021/12/20 02:42:32;;;;;;;3.22;1.92;;;-1.10;99.90;;;-1.02;100.00;97498.34;5090762;27;115153;-73
2021/12/20 02:45:11;;;;;;;5.78;2.40;;;-1.10;99.90;;;-1.05;100.00;97501.56;5090630;27;130188;-73
2021/12/20 02:47:42;;;;;;;10.75;4.05;;;-1.10;99.90;;;-0.93;100.00;97504.63;5069717;27;130027;-75
2021/12/20 02:50:13;;;;;;;4.20;2.42;;;-1.00;99.90;;;-0.88;100.00;97506.44;5072766;27;118160;-74
2021/12/20 02:52:44;;;;;;;5.78;2.33;;;-1.00;99.90;;;-0.91;100.00;97513.09;5070856;27;114748;-72
2021/12/20 02:55:13;;;;;;;4.22;2.22;;;-1.00;99.90;;;-0.89;100.00;97504.84;5085775;27;130583;-73
2021/12/20 02:57:41;;;;;;;4.53;1.90;;;-1.00;99.90;;;-0.88;100.00;97507.22;5086418;27;130346;-73
2021/12/20 03:00:12;;;;;;;3.75;1.90;;;-0.90;99.90;;;-0.92;100.00;97508.84;5088156;27;118776;-72
2021/12/20 03:02:40;;;;;;;4.65;1.77;;;-0.90;99.90;;;-0.82;100.00;97516.72;5071512;27;114748;-72
2021/12/20 03:05:11;;;;;;;6.55;1.95;;;-0.90;99.90;;;-0.77;100.00;97511.31;5086200;27;130870;-72
2021/12/20 03:07:45;;;;;;;4.80;1.85;;;-0.90;99.90;;;-0.81;100.00;97518.31;5085817;27;129924;-72
2021/12/20 03:10:19;;;;;;;4.95;1.80;;;-0.90;99.90;;;-0.85;100.00;97509.31;5071080;27;117770;-73
2021/12/20 03:12:49;;;;;;;2.78;1.80;;;-0.90;99.90;;;-0.80;100.00;97503.13;5086771;27;115075;-72
2021/12/20 03:15:23;;;;;;;4.38;1.90;;;-1.00;99.90;;;-0.80;100.00;97511.91;5088314;27;129761;-72
2021/12/20 03:17:54;;;;;;;4.45;2.20;;;-1.00;99.90;;;-0.81;100.00;97513.00;5053736;27;128576;-72
2021/12/20 03:20:24;;;;;;;5.78;1.95;;;-1.00;99.90;;;-0.80;100.00;97513.78;5054032;27;119060;-73
2021/12/20 03:22:53;;;;;;;5.28;2.22;;;-1.00;99.90;;;-0.81;100.00;97512.19;5086589;27;115253;-74
2021/12/20 03:25:23;;;;;;;5.97;2.45;;;-0.90;99.90;;;-0.86;100.00;97515.69;5070560;27;130530;-73
2021/12/20 03:27:52;;;;;;;6.95;2.78;;;-1.00;99.90;;;-0.86;100.00;97513.03;5088451;27;130302;-74
2021/12/20 03:30:21;;;;;;;5.65;2.42;;;-1.00;99.90;;;-0.85;100.00;97514.63;5086523;27;119366;-73
2021/12/20 03:32:50;;;;;;;14.05;4.07;;;-1.10;99.90;;;-0.95;100.00;97528.06;5087188;27;115189;-73
2021/12/20 03:35:19;;;;;;;12.30;3.28;;;-1.10;99.90;;;-0.98;100.00;97520.63;5087435;27;130277;-73
2021/12/20 03:37:48;;;;;;;7.85;2.35;;;-1.10;99.90;;;-1.04;100.00;97524.44;5088015;27;129650;-74
2021/12/20 03:40:18;;;;;;;6.80;2.53;;;-1.10;99.90;;;-1.09;100.00;97527.97;5088882;27;119222;-73
2021/12/20 03:42:48;;;;;;;6.05;2.78;;;-1.10;99.90;;;-1.12;100.00;97537.31;5070528;27;114410;-74
2021/12/20 03:45:17;;;;;;;4.95;2.05;;;-1.10;99.90;;;-1.15;100.00;97551.19;5070875;27;128831;-74
2021/12/20 03:47:46;;;;;;;3.83;2.22;;;-1.10;99.90;;;-1.27;100.00;97545.44;5054208;27;129281;-74
2021/12/20 03:50:17;;;;;;;3.70;1.92;;;-1.10;99.90;;;-1.37;100.00;97564.16;5068589;27;117564;-73
2021/12/20 03:52:45;;;;;;;5.05;2.03;;;-1.10;99.90;;;-1.44;100.00;97567.16;5087767;27;116016;-74
2021/12/20 03:55:15;;;;;;;4.68;1.73;;;-1.10;99.90;;;-1.40;100.00;97570.84;5085438;27;129938;-73
2021/12/20 03:57:45;;;;;;;1.30;1.08;;;-1.20;99.90;;;-1.62;100.00;97571.31;5085871;27;129888;-73
2021/12/20 04:00:17;;;;;;;1.65;1.13;;;-1.40;99.90;;;-1.73;100.00;97572.47;5067563;27;119281;-73
2021/12/20 04:02:47;;;;;;;1.27;1.00;;;-1.60;99.90;;;-1.91;100.00;97577.38;5086032;27;115057;-73
2021/12/20 04:05:16;;;;;;;1.60;1.20;;;-1.70;99.90;;;-1.95;100.00;97586.19;5085482;27;130870;-73
2021/12/20 04:07:45;;;;;;;2.63;1.20;;;-1.80;99.90;;;-2.01;100.00;97588.06;5085873;27;130416;-73
2021/12/20 04:10:14;;;;;;;2.50;1.23;;;-1.80;99.90;;;-1.97;100.00;97589.13;5085905;27;118664;-74
2021/12/20 04:12:42;;;;;;;1.02;1.02;;;-1.90;99.90;;;-2.07;100.00;97591.81;5067377;27;114793;-73
2021/12/20 04:15:11;;;;;;;1.92;1.50;;;-1.90;99.90;;;-2.07;100.00;97594.50;5085111;27;130026;-73
2021/12/20 04:17:41;;;;;;;2.72;1.35;;;-2.00;99.90;;;-2.12;100.00;97597.19;5085030;27;129924;-73
2021/12/20 04:20:11;;;;;;;2.65;1.45;;;-2.00;99.90;;;-2.17;100.00;97596.16;5086490;27;119125;-74
2021/12/20 04:22:40;;;;;;;2.72;1.67;;;-2.00;99.90;;;-2.17;100.00;97606.78;5086399;27;115221;-74
2021/12/20 04:25:10;;;;;;;3.17;1.35;;;-2.10;99.90;;;-2.15;100.00;97603.06;5070113;27;129426;-73
2021/12/20 04:27:40;;;;;;;2.08;1.20;;;-2.10;99.90;;;-2.26;100.00;97605.78;5070422;27;129259;-74
2021/12/20 04:30:11;;;;;;;2.00;1.10;;;-2.10;99.90;;;-2.26;98.89;97618.25;5085803;27;119030;-74
2021/12/20 04:32:45;;;;;;;4.25;1.20;;;-2.20;99.90;;;-2.28;99.49;97613.22;5072822;27;115033;-74
2021/12/20 04:35:17;;;;;;;1.90;1.20;;;-2.30;99.90;;;-2.32;98.81;97614.84;5025960;28;128958;-73
2021/12/20 04:37:48;;;;;;;2.05;1.30;;;-2.30;99.90;;;-2.33;98.02;97623.09;5024101;28;129815;-74
2021/12/20 04:40:20;;;;;;;5.78;1.67;;;-2.30;99.90;;;-2.26;98.71;97628.88;5025539;28;118994;-74
2021/12/20 04:42:51;;;;;;;3.15;1.42;;;-2.30;99.90;;;-2.31;98.33;97632.34;5018688;27;114662;-73
2021/12/20 04:45:20;;;;;;;2.63;1.30;;;-2.40;99.90;;;-2.28;98.58;97637.13;5023896;28;130182;-74
2021/12/20 04:47:50;;;;;;;4.88;1.50;;;-2.40;99.90;;;-2.28;98.07;97636.34;5023370;28;129781;-74
2021/12/20 04:50:19;;;;;;;2.42;1.40;;;-2.40;99.90;;;-2.27;98.44;97638.72;5023969;28;118927;-74
2021/12/20 04:52:47;;;;;;;2.97;1.52;;;-2.30;99.90;;;-2.28;97.74;97647.75;5024916;28;115247;-73
2021/12/20 04:55:16;;;;;;;6.55;1.60;;;-2.30;99.90;;;-2.20;97.34;97649.06;5025605;28;130124;-73
2021/12/20 04:57:47;;;;;;;5.65;2.40;;;-2.30;99.90;;;-2.20;98.45;97657.84;5025908;28;130081;-72
2021/12/20 05:00:20;;;;;;;6.72;2.25;;;-2.30;99.90;;;-2.29;98.28;97667.44;5022756;27;119179;-74
2021/12/20 05:02:51;;;;;;;4.90;2.10;;;-2.30;99.90;;;-2.18;98.06;97662.88;5027687;28;115267;-75
2021/12/20 05:05:21;;;;;;;6.72;2.13;;;-2.30;99.90;;;-2.22;97.71;97657.28;5026763;28;130009;-75
2021/12/20 05:07:49;;;;;;;7.28;3.63;;;-2.30;99.90;;;-2.30;97.81;97668.50;5029654;28;129429;-74
2021/12/20 05:10:27;;;;;;;9.13;4.30;;;-2.30;99.90;;;-2.30;98.56;97655.22;5027513;28;118681;-74
2021/12/20 05:12:57;;;;;;;4.82;2.17;;;-2.30;99.90;;;-2.33;99.33;97661.06;5027698;28;115139;-74
2021/12/20 05:15:28;;;;;;;8.90;4.93;;;-2.40;99.90;;;-2.33;99.96;97661.06;5028691;27;130066;-73
2021/12/20 05:17:58;;;;;;;6.88;2.63;;;-2.40;99.90;;;-2.39;99.95;97665.59;5047590;27;130060;-74
2021/12/20 05:20:27;;;;;;;6.45;2.30;;;-2.40;99.90;;;-2.46;100.00;97672.28;5019438;27;117752;-74
2021/12/20 05:22:56;;;;;;;8.10;3.53;;;-2.40;99.90;;;-2.36;100.00;97661.63;5030850;28;115090;-73
2021/12/20 05:25:26;;;;;;;6.07;2.15;;;-2.40;99.90;;;-2.35;100.00;97668.53;5027074;28;129897;-73
2021/12/20 05:27:55;;;;;;;7.20;2.45;;;-2.40;99.90;;;-2.30;100.00;97676.47;5028322;28;130700;-74
2021/12/20 05:30:24;;;;;;;9.55;2.60;;;-2.40;99.90;;;-2.37;100.00;97675.97;5027379;28;118902;-74
2021/12/20 05:32:53;;;;;;;4.72;2.30;;;-2.40;99.90;;;-2.37;100.00;97681.28;5011291;28;114565;-74
2021/12/20 05:35:24;;;;;;;6.15;2.45;;;-2.40;99.90;;;-2.41;98.44;97686.34;4978783;28;128506;-73
2021/12/20 05:37:52;;;;;;;11.73;2.92;;;-2.50;99.90;;;-2.40;98.59;97692.44;4985014;28;129394;-73
2021/12/20 05:40:21;;;;;;;10.90;2.83;;;-2.50;99.90;;;-2.36;98.28;97688.19;4986916;28;118846;-73
2021/12/20 05:42:51;;;;;;;4.50;2.10;;;-2.50;99.90;;;-2.43;97.34;97687.66;4954815;28;114089;-73
2021/12/20 05:45:20;;;;;;;6.72;2.90;;;-2.50;99.90;;;-2.51;97.27;97701.50;4967894;28;130030;-73
2021/12/20 05:47:48;;;;;;;4.20;1.92;;;-2.50;99.90;;;-2.51;97.44;97714.78;4955477;28;129139;-73
2021/12/20 05:50:20;;;;;;;6.18;2.85;;;-2.50;99.90;;;-2.50;96.69;97724.38;4969526;28;118836;-73
2021/12/20 05:52:50;;;;;;;4.75;2.35;;;-2.60;99.90;;;-2.65;97.63;97718.03;4988170;28;114990;-73
2021/12/20 05:55:20;;;;;;;3.83;2.00;;;-2.60;99.90;;;-2.65;96.75;97718.03;4986211;28;129796;-74
2021/12/20 05:57:49;;;;;;;4.60;2.50;;;-2.60;99.90;;;-2.69;97.48;97732.13;4968348;28;130040;-73
2021/12/20 06:00:21;;;;;;;3.95;1.95;;;-2.60;99.90;;;-2.64;97.65;97732.88;4986247;28;118783;-73
2021/12/20 06:02:53;;;;;;;3.78;2.00;;;-2.60;99.90;;;-2.71;97.02;97740.34;4969168;28;115141;-73
2021/12/20 06:05:23;;;;;;;4.20;2.42;;;-2.70;99.90;;;-2.80;97.12;97741.94;4984781;28;129913;-73
2021/12/20 06:07:54;;;;;;;5.00;2.03;;;-2.70;99.90;;;-2.81;96.37;97745.66;4953668;28;128837;-74
2021/12/20 06:10:22;;;;;;;3.97;1.75;;;-2.70;99.90;;;-2.79;95.81;97749.66;4988838;28;119533;-74
2021/12/20 06:12:51;;;;;;;4.47;1.90;;;-2.70;99.90;;;-2.79;96.15;97748.84;5002895;28;115377;-74
2021/12/20 06:15:20;;;;;;;3.25;1.92;;;-2.70;99.90;;;-2.74;95.02;97756.81;5006471;28;130562;-74
2021/12/20 06:17:49;;;;;;;12.30;3.50;;;-2.70;99.90;;;-2.68;95.74;97755.75;4974698;28;129145;-74
2021/12/20 06:20:17;;;;;;;7.78;3.47;;;-2.70;99.90;;;-2.67;95.49;97752.00;5024194;28;118796;-73
2021/12/20 06:22:46;;;;;;;6.25;3.67;;;-2.70;99.90;;;-2.64;95.39;97756.78;5026135;28;116060;-73
2021/12/20 06:25:17;;;;;;;7.93;4.25;;;-2.70;99.90;;;-2.59;96.15;97764.75;5009653;28;129934;-72
2021/12/20 06:27:47;;;;;;;11.07;5.57;;;-2.60;99.90;;;-2.58;96.51;97782.28;4994597;28;129583;-73
2021/12/20 06:30:16;;;;;;;7.97;4.20;;;-2.60;99.90;;;-2.58;97.64;97778.84;5011002;28;117863;-73
2021/12/20 06:32:46;;;;;;;6.45;3.53;;;-2.60;99.90;;;-2.48;98.62;97780.66;5010050;28;114798;-72
2021/12/20 06:35:16;;;;;;;7.00;3.67;;;-2.60;99.90;;;-2.54;99.66;97783.34;5026929;28;130118;-73
2021/12/20 06:37:48;;;;;;;8.68;4.38;;;-2.50;99.90;;;-2.54;100.00;97793.97;5009518;28;129639;-73
2021/12/20 06:40:18;;;;;;;7.55;4.32;;;-2.50;99.90;;;-2.40;100.00;97801.38;5024523;28;118887;-73
2021/12/20 06:42:46;;;;;;;13.27;5.63;;;-2.50;99.90;;;-2.39;100.00;97805.63;5025049;28;115926;-74
2021/12/20 06:45:15;;;;;;;6.47;3.30;;;-2.50;99.90;;;-2.30;100.00;97804.03;5027464;28;129532;-73
2021/12/20 06:47:44;;;;;;;6.70;3.70;;;-2.40;99.90;;;-2.25;100.00;97811.97;5009510;28;128474;-73
2021/12/20 06:50:13;;;;;;;5.82;3.28;;;-2.40;99.90;;;-2.20;100.00;97822.63;5024617;28;119623;-73
2021/12/20 06:52:42;;;;;;;6.90;3.50;;;-2.40;99.90;;;-2.15;100.00;97821.81;5009265;28;113999;-73
2021/12/20 06:55:11;;;;;;;11.63;5.30;;;-2.40;99.90;;;-2.18;100.00;97823.13;5009145;28;128674;-73
2021/12/20 06:57:41;;;;;;;13.18;5.72;;;-2.30;99.90;;;-2.17;99.99;97827.41;5009495;28;128880;-73
2021/12/20 07:00:12;;;;;;;8.35;3.85;;;-2.40;99.90;;;-2.32;98.31;97832.75;5009786;28;118053;-72
2021/12/20 07:02:40;;;;;;;7.63;4.03;;;-2.40;99.90;;;-2.37;98.56;97830.06;5009933;28;114016;-74
2021/12/20 07:05:10;;;;;;;5.50;3.30;;;-2.40;99.90;;;-2.49;98.69;97832.19;5006520;28;130146;-73
2021/12/20 07:07:39;;;;;;;6.68;3.30;;;-2.50;99.90;;;-2.52;98.90;97838.88;5025085;28;129675;-73
2021/12/20 07:10:10;;;;;;;7.07;3.47;;;-2.50;99.90;;;-2.47;99.38;97838.06;5001174;28;118363;-72
2021/12/20 07:12:39;;;;;;;9.25;3.83;;;-2.50;99.90;;;-2.50;99.47;97851.88;5005509;28;115785;-73
2021/12/20 07:15:12;;;;;;;4.53;2.35;;;-2.50;99.90;;;-2.68;99.31;97851.34;5007784;28;130542;-73
2021/12/20 07:17:42;;;;;;;5.15;2.55;;;-2.60;99.90;;;-2.67;99.75;97854.78;5004534;28;130136;-73
2021/12/20 07:20:13;;;;;;;5.35;2.30;;;-2.60;99.90;;;-2.76;98.97;97873.91;4975053;28;118917;-73
2021/12/20 07:22:41;;;;;;;2.65;1.80;;;-2.60;99.90;;;-3.06;97.00;97872.00;4970601;28;113848;-73
2021/12/20 07:25:11;;;;;;;5.35;1.77;;;-2.80;99.90;;;-3.37;97.03;97887.81;4969518;28;128983;-72
2021/12/20 07:27:40;;;;;;;3.90;1.80;;;-3.00;99.90;;;-3.41;96.33;97885.94;4954076;28;128903;-72
2021/12/20 07:30:11;;;;;;;6.38;1.80;;;-3.10;99.90;;;-3.41;94.88;97892.06;4969096;28;118257;-72
2021/12/20 07:32:40;;;;;;;5.90;2.00;;;-3.20;99.90;;;-3.39;93.01;97892.59;4970298;28;113937;-73
2021/12/20 07:35:10;;;;;;;5.85;1.67;;;-3.20;99.90;;;-3.44;92.23;97908.50;4986102;28;130448;-73
2021/12/20 07:37:39;;;;;;;1.83;1.45;;;-3.30;99.90;;;-3.46;91.69;97894.69;4986717;28;129800;-72
2021/12/20 07:40:09;;;;;;;3.28;1.65;;;-3.40;99.90;;;-3.48;90.73;97918.03;4970196;28;117950;-72
2021/12/20 07:42:38;;;;;;;2.33;1.30;;;-3.50;99.90;;;-3.48;90.12;97923.31;4966985;28;114990;-72
2021/12/20 07:45:11;;;;;;;1.40;1.10;;;-3.50;99.90;;;-3.63;90.77;97924.84;4969109;28;130602;-72
2021/12/20 07:47:39;;;;;;;4.28;2.00;;;-3.50;99.90;;;-3.44;91.05;97927.06;4969752;28;128803;-72
2021/12/20 07:50:09;;;;;;;3.85;1.65;;;-3.50;99.90;;;-3.45;91.43;97930.78;4969801;28;118177;-73
2021/12/20 07:52:39;;;;;;;6.75;2.67;;;-3.40;99.90;;;-3.31;90.54;97931.88;4970094;28;114502;-73
2021/12/20 07:55:09;;;;;;;13.77;6.07;;;-3.40;99.90;;;-3.29;91.56;97932.44;4986605;28;129768;-73
2021/12/20 07:57:37;;;;;;;15.65;6.75;;;-3.30;99.90;;;-3.06;91.86;97935.69;4953092;28;129361;-73
2021/12/20 08:00:11;;;;;;;11.13;4.20;;;-3.20;99.90;;;-3.01;91.47;97941.00;4984240;28;119201;-73
2021/12/20 08:02:42;;;;;;;6.90;1.83;;;-3.20;99.90;;;-3.23;91.45;97943.06;4983215;28;115907;-73
2021/12/20 08:05:12;;;;;;;4.57;2.53;;;-3.30;99.90;;;-3.23;92.75;97956.34;4972843;28;128958;-73
2021/12/20 08:07:41;;;;;;;5.63;2.58;;;-3.40;99.90;;;-3.28;93.75;97952.59;5004424;28;129632;-73
2021/12/20 08:10:11;;;;;;;7.40;3.35;;;-3.40;99.90;;;-3.28;93.51;97962.41;4989623;28;118722;-73
2021/12/20 08:12:40;;;;;;;15.80;7.57;;;-3.40;99.90;;;-3.28;94.40;97965.84;5003968;28;114872;-73
2021/12/20 08:15:11;;;;;;;6.85;3.45;;;-3.30;99.90;;;-3.42;94.34;97975.34;4989063;28;128681;-73
2021/12/20 08:17:40;;;;;;;6.13;3.28;;;-3.40;99.90;;;-3.50;94.94;97962.59;4989319;28;128958;-73
2021/12/20 08:20:11;;;;;;;7.93;3.03;;;-3.40;99.90;;;-3.47;95.06;97968.16;4989656;28;118647;-73
2021/12/20 08:22:40;;;;;;;8.73;3.85;;;-3.40;99.90;;;-3.49;95.02;97972.94;4989472;28;114003;-73
2021/12/20 08:25:10;;;;;;;5.78;3.05;;;-3.50;99.90;;;-3.52;94.94;97967.31;4972212;28;128621;-72
2021/12/20 08:27:39;;;;;;;7.47;2.85;;;-3.50;99.90;;;-3.41;95.58;97970.81;4986261;28;130248;-72
2021/12/20 08:30:11;;;;;;;3.88;2.38;;;-3.40;99.90;;;-3.50;95.92;97973.19;4972923;28;117770;-73
2021/12/20 08:32:40;;;;;;;4.57;2.25;;;-3.50;99.90;;;-3.57;95.04;97977.91;4989088;28;114059;-72
2021/12/20 08:35:12;;;;;;;3.08;2.10;;;-3.50;99.90;;;-3.59;94.32;97974.72;4987183;28;129775;-73
2021/12/20 08:37:42;;;;;;;3.38;1.95;;;-3.50;99.90;;;-3.71;93.78;97978.38;5007388;28;129914;-72
2021/12/20 08:40:14;;;;;;;6.00;2.28;;;-3.60;99.90;;;-3.89;93.82;97976.13;4990339;28;119031;-72
2021/12/20 08:42:44;;;;;;;4.55;2.17;;;-3.70;99.90;;;-3.89;93.81;97976.13;5008270;28;115118;-73
2021/12/20 08:45:17;;;;;;;5.28;2.40;;;-3.70;99.90;;;-3.88;94.32;97983.00;5007973;28;129945;-73
2021/12/20 08:47:46;;;;;;;4.88;2.38;;;-3.70;99.90;;;-3.77;93.09;97983.88;4993098;28;129130;-73
2021/12/20 08:50:18;;;;;;;3.05;1.80;;;-3.70;99.90;;;-3.82;91.16;97976.69;4992909;28;117907;-73
2021/12/20 08:52:48;;;;;;;3.42;1.80;;;-3.70;99.90;;;-3.82;90.09;97992.59;5009531;28;115454;-72
2021/12/20 08:55:17;;;;;;;3.35;2.60;;;-3.80;99.90;;;-3.75;89.44;97992.41;5007233;28;129942;-74
2021/12/20 08:57:46;;;;;;;4.18;2.30;;;-3.70;99.90;;;-3.64;88.86;98005.44;5007198;28;129890;-73
2021/12/20 09:00:22;;;;;;;3.63;1.70;;;-3.70;99.90;;;-3.58;88.41;98014.25;5007506;28;118890;-73
2021/12/20 09:02:53;;;;;;;5.50;2.10;;;-3.70;99.90;;;-3.63;88.60;98006.25;4989928;28;115187;-73
2021/12/20 09:05:23;;;;;;;4.75;2.17;;;-3.70;99.90;;;-3.48;88.19;98008.19;5007334;28;130058;-73
2021/12/20 09:07:52;;;;;;;3.17;1.60;;;-3.70;99.90;;;-3.52;87.48;98025.66;4992719;28;129461;-73
2021/12/20 09:10:21;;;;;;;7.53;1.80;;;-3.60;99.90;;;-3.50;86.97;98015.63;5007213;28;118916;-74
2021/12/20 09:12:50;;;;;;;3.55;1.77;;;-3.60;99.90;;;-3.55;86.12;98021.69;5009233;28;114852;-75
2021/12/20 09:15:20;;;;;;;2.88;1.52;;;-3.70;99.90;;;-3.52;85.98;98023.84;4974070;28;129113;-75
2021/12/20 09:17:53;;;;;;;3.05;1.38;;;-3.70;99.90;;;-3.61;86.23;98028.81;5005619;28;130150;-74
2021/12/20 09:20:26;;;;;;;4.45;2.15;;;-3.80;99.90;;;-3.69;86.97;98029.28;5025376;28;119046;-75
2021/12/20 09:23:03;;;;;;;3.10;1.90;;;-3.80;99.90;;;-3.82;87.00;98040.31;5026313;28;115711;-74
2021/12/20 09:25:34;;;;;;;5.38;2.40;;;-3.90;99.90;;;-3.92;86.34;98045.56;5011649;28;129556;-74
2021/12/20 09:28:08;;;;;;;3.75;1.80;;;-3.90;99.90;;;-4.05;85.54;98041.44;5025799;28;130146;-75
2021/12/20 09:30:43;;;;;;;2.35;1.50;;;-4.00;98.20;;;-4.13;85.93;98045.34;5026038;28;118936;-74
2021/12/20 09:33:12;;;;;;;3.05;1.42;;;-4.10;95.90;;;-4.23;86.60;98053.22;5026655;28;115084;-72
2021/12/20 09:35:42;;;;;;;2.78;1.60;;;-4.10;91.80;;;-4.19;86.82;98067.53;5026950;28;130057;-73
2021/12/20 09:38:16;;;;;;;4.28;1.80;;;-4.10;93.20;;;-4.23;86.80;98046.06;5025552;28;129840;-72
2021/12/20 09:41:12;;;;;;;3.47;1.60;;;-4.00;96.90;;;-4.09;87.85;98041.16;5025452;28;119275;-72
2021/12/20 09:43:45;;;;;;;2.20;1.30;;;-4.00;96.80;;;-4.06;88.07;98039.88;5010997;28;114428;-72
2021/12/20 09:46:18;;;;;;;3.40;1.60;;;-4.00;93.30;;;-4.22;87.73;98058.28;5026517;28;129930;-72
2021/12/20 09:48:49;;;;;;;2.55;1.58;;;-4.10;93.50;;;-4.03;88.52;98066.66;5006850;28;130170;-72
2021/12/20 09:51:19;;;;;;;4.03;1.77;;;-4.00;95.30;;;-4.00;88.76;98055.56;5025621;28;119169;-71
2021/12/20 09:53:48;;;;;;;3.00;1.65;;;-4.00;94.50;;;-4.16;88.44;98056.44;5028627;28;115305;-71
2021/12/20 09:56:18;;;;;;;4.15;1.80;;;-4.10;95.30;;;-3.97;87.24;98059.56;5007651;28;129861;-74
2021/12/20 09:58:51;;;;;;;3.00;1.75;;;-4.00;93.90;;;-3.80;87.34;98083.28;5011675;28;129342;-79
2021/12/20 10:01:23;;;;;;;2.00;1.42;;;-4.00;94.20;;;-4.11;86.06;98085.66;5011287;28;117721;-76
2021/12/20 10:03:53;;;;;;;5.03;1.70;;;-4.10;89.40;;;-4.15;86.61;98073.94;5011490;28;114902;-78
2021/12/20 10:06:23;;;;;;;2.92;1.85;;;-4.00;90.60;;;-4.01;87.17;98069.84;5024976;28;129781;-77
2021/12/20 10:08:55;;;;;;;5.53;1.70;;;-4.00;93.40;;;-3.81;87.78;98071.09;5025420;28;130143;-78
2021/12/20 10:11:27;;;;;;;3.75;1.88;;;-4.00;92.50;;;-3.80;87.22;98085.94;5025493;28;118913;-77
2021/12/20 10:14:03;;;;;;;4.03;1.67;;;-4.00;91.80;;;-3.85;86.69;98083.22;5025686;28;115274;-77
2021/12/20 10:16:35;;;;;;;2.72;1.63;;;-4.00;91.00;;;-4.00;86.14;98082.06;5025026;28;130497;-77
2021/12/20 10:19:05;;;;;;;2.40;1.60;;;-4.10;88.40;;;-3.83;85.71;98075.84;5025731;28;130274;-77
2021/12/20 10:21:45;;;;;;;3.35;1.63;;;-4.00;92.30;;;-3.97;85.04;98080.75;5010330;28;118288;-77
2021/12/20 10:24:31;;;;;;;7.57;3.17;;;-4.00;81.80;;;-3.75;84.14;98088.63;5025741;28;115081;-78
2021/12/20 10:27:27;;;;;;;5.60;2.20;;;-4.00;91.00;;;-3.74;84.81;98087.59;5010148;28;129911;-78
2021/12/20 10:30:04;;;;;;;5.57;2.55;;;-3.90;84.70;;;-3.86;84.82;98092.25;5025789;28;129766;-78
2021/12/20 10:32:42;;;;;;;5.78;2.80;;;-4.00;86.10;;;-4.02;84.99;98099.25;5025114;27;118677;-77